Dades meteomassalio
Diari Summary for Febrer 16, 2017 Units:  Metric    English   Both
« Previous Day
Next Day »
Diari Semanal Mensual Anual Personalitzat
  Maxima: Minima: Mijana:
Temperatura: 16.4 °C 5.4 °C 10.4 °C
Rosada: 10.8 °C 4.2 °C 7.4 °C
Humitat: 93 % 55 % 83 %
Velocitat del vent: 16.7 km/h 0.0 km/h 1.4 km/h
Racha vent: 16.7 km/h - -
Vent:- - East
Pressio: 1034.8 hPa 1029.7 hPa -
Pluja: 0.0 mm    
Historical Graphs
 
 
Tabular Data for Febrer 16, 2017
Time Temperature Dew Point Pressure Wind Wind Speed Wind Gust Humidity Rainfall Rate (Hourly) solar Conditions
00:01 6.0 °C 4.8 °C 1034.8 hPa Calm     92 % 0.0 mm 0.0 W/m2 RA
00:06 6.1 °C 4.8 °C 1034.8 hPa Calm     92 % 0.0 mm 0.0 W/m2 CLR
00:11 6.0 °C 4.8 °C 1034.8 hPa Calm     92 % 0.0 mm 0.0 W/m2 CLR
00:16 5.9 °C 4.7 °C 1034.8 hPa Calm     92 % 0.0 mm 0.0 W/m2 CLR
00:21 5.9 °C 4.7 °C 1034.8 hPa Calm     92 % 0.0 mm 0.0 W/m2 CLR
00:26 5.7 °C 4.5 °C 1034.8 hPa Calm     92 % 0.0 mm 0.0 W/m2 CLR
00:31 5.6 °C 4.4 °C 1034.8 hPa Calm     92 % 0.0 mm 0.0 W/m2 CLR
00:36 5.5 °C 4.3 °C 1034.8 hPa Calm     92 % 0.0 mm 0.0 W/m2 CLR
00:41 5.4 °C 4.2 °C 1034.8 hPa Calm     92 % 0.0 mm 0.0 W/m2 CLR
00:46 5.4 °C 4.2 °C 1034.8 hPa Calm     92 % 0.0 mm 0.0 W/m2 CLR
00:56 5.4 °C 4.2 °C 1034.8 hPa Calm     92 % 0.0 mm 0.0 W/m2 CLR
01:06 5.5 °C 4.4 °C 1034.8 hPa Calm     93 % 0.0 mm 0.0 W/m2 CLR
01:11 5.6 °C 4.5 °C 1034.8 hPa Calm     93 % 0.0 mm 0.0 W/m2 CLR
01:16 5.6 °C 4.4 °C 1034.8 hPa Calm     92 % 0.0 mm 0.0 W/m2 CLR
01:21 5.6 °C 4.4 °C 1034.8 hPa Calm     92 % 0.0 mm 0.0 W/m2 CLR
01:26 5.7 °C 4.4 °C 1034.8 hPa Calm     92 % 0.0 mm 0.0 W/m2 CLR
01:31 5.7 °C 4.7 °C 1034.8 hPa Calm     93 % 0.0 mm 0.0 W/m2 CLR
01:36 5.8 °C 4.8 °C 1034.4 hPa Calm     93 % 0.0 mm 0.0 W/m2 CLR
01:41 5.9 °C 4.8 °C 1034.4 hPa Calm     93 % 0.0 mm 0.0 W/m2 CLR
01:46 6.1 °C 5.0 °C 1034.4 hPa Calm     93 % 0.0 mm 0.0 W/m2 CLR
01:51 6.1 °C 5.1 °C 1034.4 hPa Calm     93 % 0.0 mm 0.0 W/m2 CLR
01:56 6.2 °C 5.2 °C 1034.4 hPa Calm     93 % 0.0 mm 0.0 W/m2 CLR
02:01 6.3 °C 5.3 °C 1034.4 hPa Calm     93 % 0.0 mm 0.0 W/m2 CLR
02:06 6.3 °C 5.1 °C 1034.4 hPa Calm     92 % 0.0 mm 0.0 W/m2 CLR
02:11 6.3 °C 5.1 °C 1034.4 hPa Calm     92 % 0.0 mm 0.0 W/m2 CLR
02:16 6.4 °C 5.3 °C 1034.4 hPa Calm     93 % 0.0 mm 0.0 W/m2 CLR
02:21 6.5 °C 5.4 °C 1034.1 hPa Calm     93 % 0.0 mm 0.0 W/m2 CLR
02:26 6.6 °C 5.5 °C 1034.4 hPa Calm     93 % 0.0 mm 0.0 W/m2 CLR
02:31 6.6 °C 5.6 °C 1034.1 hPa Calm     93 % 0.0 mm 0.0 W/m2 CLR
02:36 6.7 °C 5.7 °C 1034.1 hPa Calm     93 % 0.0 mm 0.0 W/m2 CLR
02:41 6.8 °C 5.8 °C 1034.4 hPa Calm     93 % 0.0 mm 0.0 W/m2 CLR
02:46 6.8 °C 5.8 °C 1034.1 hPa Calm     93 % 0.0 mm 0.0 W/m2 CLR
02:51 6.9 °C 5.9 °C 1034.1 hPa Calm     93 % 0.0 mm 0.0 W/m2 CLR
02:56 7.0 °C 5.9 °C 1034.1 hPa Calm     93 % 0.0 mm 0.0 W/m2 CLR
03:01 7.0 °C 5.8 °C 1034.1 hPa Calm     92 % 0.0 mm 0.0 W/m2 CLR
03:06 7.0 °C 5.8 °C 1034.4 hPa Calm     92 % 0.0 mm 0.0 W/m2 CLR
03:11 7.1 °C 5.8 °C 1034.1 hPa Calm     92 % 0.0 mm 0.0 W/m2 CLR
03:16 7.1 °C 5.9 °C 1034.1 hPa Calm     92 % 0.0 mm 0.0 W/m2 CLR
03:21 7.2 °C 5.9 °C 1034.1 hPa Calm     92 % 0.0 mm 0.0 W/m2 CLR
03:26 7.2 °C 5.9 °C 1034.1 hPa Calm     92 % 0.0 mm 0.0 W/m2 CLR
03:31 7.2 °C 5.9 °C 1034.1 hPa Calm     92 % 0.0 mm 0.0 W/m2 CLR
03:36 7.2 °C 6.0 °C 1034.1 hPa Calm     92 % 0.0 mm 0.0 W/m2 CLR
03:41 7.2 °C 6.0 °C 1034.1 hPa Calm     92 % 0.0 mm 0.0 W/m2 CLR
03:46 7.3 °C 6.1 °C 1034.1 hPa Calm     92 % 0.0 mm 0.0 W/m2 CLR
03:51 7.3 °C 6.1 °C 1034.1 hPa Calm     92 % 0.0 mm 0.0 W/m2 CLR
03:56 7.3 °C 6.1 °C 1034.1 hPa Calm     92 % 0.0 mm 0.0 W/m2 CLR
04:01 7.3 °C 6.1 °C 1034.1 hPa Calm     92 % 0.0 mm 0.0 W/m2 CLR
04:06 7.3 °C 6.1 °C 1034.1 hPa Calm     92 % 0.0 mm 0.0 W/m2 CLR
04:11 7.4 °C 6.2 °C 1034.1 hPa Calm     92 % 0.0 mm 0.0 W/m2 CLR
04:16 7.4 °C 6.2 °C 1034.1 hPa Calm     92 % 0.0 mm 0.0 W/m2 CLR
04:21 7.4 °C 6.2 °C 1033.7 hPa Calm     92 % 0.0 mm 0.0 W/m2 CLR
04:26 7.5 °C 6.3 °C 1034.1 hPa Calm     92 % 0.0 mm 0.0 W/m2 CLR
04:31 7.5 °C 6.3 °C 1033.7 hPa Calm     92 % 0.0 mm 0.0 W/m2 CLR
04:41 7.6 °C 6.3 °C 1033.7 hPa Calm     92 % 0.0 mm 0.0 W/m2 CLR
04:46 7.6 °C 6.4 °C 1033.7 hPa Calm     92 % 0.0 mm 0.0 W/m2 CLR
04:51 7.7 °C 6.4 °C 1033.7 hPa Calm     92 % 0.0 mm 0.0 W/m2 CLR
04:56 7.7 °C 6.4 °C 1033.7 hPa Calm     92 % 0.0 mm 0.0 W/m2 CLR
05:01 7.6 °C 6.4 °C 1033.7 hPa Calm     92 % 0.0 mm 0.0 W/m2 CLR
05:06 7.6 °C 6.4 °C 1033.7 hPa Calm     92 % 0.0 mm 0.0 W/m2 CLR
05:11 7.6 °C 6.4 °C 1033.7 hPa Calm     92 % 0.0 mm 0.0 W/m2 CLR
05:16 7.7 °C 6.4 °C 1033.7 hPa Calm     92 % 0.0 mm 0.0 W/m2 CLR
05:21 7.7 °C 6.5 °C 1033.7 hPa Calm     92 % 0.0 mm 0.0 W/m2 CLR
05:26 7.7 °C 6.5 °C 1033.7 hPa Calm     92 % 0.0 mm 0.0 W/m2 CLR
05:31 7.7 °C 6.5 °C 1033.7 hPa Calm     92 % 0.0 mm 0.0 W/m2 CLR
05:36 7.8 °C 6.6 °C 1033.7 hPa Calm     92 % 0.0 mm 0.0 W/m2 CLR
05:41 7.7 °C 6.5 °C 1033.7 hPa Calm     92 % 0.0 mm 0.0 W/m2 CLR
05:46 7.7 °C 6.5 °C 1033.7 hPa Calm     92 % 0.0 mm 0.0 W/m2 CLR
05:51 7.8 °C 6.6 °C 1033.7 hPa Calm     92 % 0.0 mm 0.0 W/m2 CLR
05:56 7.7 °C 6.5 °C 1033.7 hPa Calm     92 % 0.0 mm 0.0 W/m2 CLR
06:01 7.7 °C 6.5 °C 1033.7 hPa Calm     92 % 0.0 mm 0.0 W/m2 CLR
06:06 7.7 °C 6.5 °C 1033.7 hPa Calm     92 % 0.0 mm 0.0 W/m2 CLR
06:11 7.7 °C 6.5 °C 1033.7 hPa Calm     92 % 0.0 mm 0.0 W/m2 CLR
06:16 7.8 °C 6.6 °C 1033.7 hPa Calm     92 % 0.0 mm 0.0 W/m2 CLR
06:21 8.0 °C 6.8 °C 1033.7 hPa Calm     92 % 0.0 mm 0.0 W/m2 CLR
06:26 8.2 °C 7.2 °C 1033.7 hPa Calm     93 % 0.0 mm 0.0 W/m2 CLR
06:31 8.2 °C 6.9 °C 1033.7 hPa Calm     92 % 0.0 mm 0.0 W/m2 CLR
06:36 8.1 °C 6.9 °C 1033.7 hPa Calm     92 % 0.0 mm 0.0 W/m2 CLR
06:41 8.1 °C 6.8 °C 1033.7 hPa Calm     92 % 0.0 mm 0.0 W/m2 CLR
06:46 8.1 °C 6.8 °C 1033.7 hPa Calm     92 % 0.0 mm 0.0 W/m2 CLR
06:51 8.0 °C 6.8 °C 1033.7 hPa Calm     92 % 0.0 mm 0.0 W/m2 CLR
06:56 8.0 °C 6.8 °C 1033.7 hPa Calm     92 % 0.0 mm 0.0 W/m2 CLR
07:02 8.0 °C 6.8 °C 1033.7 hPa Calm     92 % 0.0 mm 0.0 W/m2 CLR
07:07 8.0 °C 6.9 °C 1033.7 hPa Calm     93 % 0.0 mm 0.0 W/m2 CLR
07:12 8.1 °C 7.0 °C 1033.7 hPa Calm     93 % 0.0 mm 0.0 W/m2 CLR
07:17 8.1 °C 7.0 °C 1033.7 hPa Calm     93 % 0.0 mm 0.0 W/m2 CLR
07:22 8.1 °C 7.0 °C 1033.7 hPa Calm     93 % 0.0 mm 0.0 W/m2 CLR
07:27 8.1 °C 7.1 °C 1033.7 hPa Calm     93 % 0.0 mm 0.0 W/m2 CLR
07:32 8.1 °C 7.1 °C 1033.7 hPa Calm     93 % 0.0 mm 0.0 W/m2 CLR
07:37 8.1 °C 7.1 °C 1034.1 hPa Calm     93 % 0.0 mm 0.0 W/m2 CLR
07:42 8.1 °C 7.0 °C 1034.1 hPa Calm     93 % 0.0 mm 0.0 W/m2 CLR
07:47 8.0 °C 6.9 °C 1034.1 hPa Calm     93 % 0.0 mm 0.0 W/m2 OVC
07:52 8.1 °C 7.0 °C 1034.1 hPa Calm     93 % 0.0 mm 0.0 W/m2 OVC
07:57 8.1 °C 7.0 °C 1034.1 hPa Calm     93 % 0.0 mm 0.0 W/m2 OVC
08:02 8.1 °C 7.0 °C 1034.1 hPa Calm     93 % 0.0 mm 0.0 W/m2 OVC
08:07 8.1 °C 7.0 °C 1034.1 hPa Calm     93 % 0.0 mm 5.0 W/m2 OVC
08:12 8.1 °C 7.0 °C 1034.1 hPa Calm     93 % 0.0 mm 11.0 W/m2 BKN
08:17 8.1 °C 7.0 °C 1034.1 hPa Calm     93 % 0.0 mm 16.0 W/m2 BKN
08:22 8.1 °C 7.0 °C 1034.1 hPa Calm     93 % 0.0 mm 21.0 W/m2 BKN
08:27 8.1 °C 7.0 °C 1034.1 hPa Calm     93 % 0.0 mm 26.0 W/m2 BKN
08:32 8.1 °C 7.0 °C 1034.1 hPa Calm     93 % 0.0 mm 39.0 W/m2 BKN
08:37 8.2 °C 7.1 °C 1034.1 hPa Calm     93 % 0.0 mm 56.0 W/m2 SCT
08:42 8.3 °C 7.3 °C 1034.1 hPa Calm     93 % 0.0 mm 70.0 W/m2 FEW
08:47 8.5 °C 7.4 °C 1034.1 hPa Calm     93 % 0.0 mm 74.0 W/m2 FEW
08:52 8.6 °C 7.5 °C 1034.1 hPa Calm     93 % 0.0 mm 76.0 W/m2 FEW
08:57 8.6 °C 7.5 °C 1034.1 hPa Calm     93 % 0.0 mm 79.0 W/m2 FEW
09:02 8.4 °C 7.2 °C 1034.1 hPa Calm     92 % 0.0 mm 93.0 W/m2 FEW
09:07 8.4 °C 7.3 °C 1034.1 hPa Calm     93 % 0.0 mm 113.0 W/m2 CLR
09:12 8.5 °C 7.4 °C 1034.1 hPa Calm     93 % 0.0 mm 111.0 W/m2 CLR
09:17 8.6 °C 7.6 °C 1034.1 hPa Calm     93 % 0.0 mm 111.0 W/m2 CLR
09:22 8.7 °C 7.7 °C 1034.1 hPa Calm     93 % 0.0 mm 123.0 W/m2 CLR
09:27 8.9 °C 7.8 °C 1034.1 hPa Calm     93 % 0.0 mm 141.0 W/m2 CLR
09:32 9.1 °C 8.1 °C 1034.1 hPa Calm     93 % 0.0 mm 153.0 W/m2 CLR
09:37 9.4 °C 8.4 °C 1034.1 hPa Calm     93 % 0.0 mm 156.0 W/m2 CLR
09:42 9.7 °C 8.6 °C 1034.1 hPa Calm     93 % 0.0 mm 162.0 W/m2 CLR
09:47 9.7 °C 8.5 °C 1034.1 hPa Calm     92 % 0.0 mm 160.0 W/m2 CLR
09:52 9.8 °C 8.6 °C 1034.1 hPa Calm     92 % 0.0 mm 156.0 W/m2 CLR
09:57 9.8 °C 8.4 °C 1033.7 hPa Calm     91 % 0.0 mm 163.0 W/m2 CLR
10:02 9.8 °C 8.4 °C 1034.1 hPa Calm     91 % 0.0 mm 155.0 W/m2 CLR
10:07 9.9 °C 8.5 °C 1034.1 hPa Calm     91 % 0.0 mm 181.0 W/m2 CLR
10:12 10.1 °C 8.7 °C 1033.7 hPa Calm     91 % 0.0 mm 169.0 W/m2 CLR
10:17 10.2 °C 8.7 °C 1033.7 hPa Calm     90 % 0.0 mm 241.0 W/m2 CLR
10:22 10.5 °C 8.9 °C 1033.7 hPa Calm     90 % 0.0 mm 239.0 W/m2 CLR
10:27 10.8 °C 9.2 °C 1033.7 hPa Calm     90 % 0.0 mm 274.0 W/m2 CLR
10:32 11.2 °C 9.6 °C 1033.7 hPa Calm     90 % 0.0 mm 292.0 W/m2 CLR
10:37 11.5 °C 9.6 °C 1033.7 hPa Calm     88 % 0.0 mm 306.0 W/m2 CLR
10:42 11.8 °C 9.5 °C 1033.7 hPa Calm     86 % 0.0 mm 359.0 W/m2 CLR
10:47 12.1 °C 9.8 °C 1033.7 hPa Calm     86 % 0.0 mm 396.0 W/m2 CLR
10:52 12.4 °C 9.8 °C 1033.7 hPa Calm     84 % 0.0 mm 425.0 W/m2 CLR
10:57 12.7 °C 9.8 °C 1033.4 hPa Calm     83 % 0.0 mm 385.0 W/m2 CLR
11:02 12.8 °C 9.7 °C 1033.4 hPa Calm     81 % 0.0 mm 332.0 W/m2 CLR
11:07 12.8 °C 9.8 °C 1033.4 hPa Calm     82 % 0.0 mm 346.0 W/m2 CLR
11:12 12.8 °C 9.8 °C 1033.4 hPa Calm     82 % 0.0 mm 448.0 W/m2 CLR
11:17 13.1 °C 10.1 °C 1033.4 hPa Calm     82 % 0.0 mm 494.0 W/m2 CLR
11:22 13.3 °C 10.1 °C 1033.4 hPa Calm     81 % 0.0 mm 513.0 W/m2 CLR
11:27 13.6 °C 10.3 °C 1033.4 hPa Calm     81 % 0.0 mm 550.0 W/m2 CLR
11:32 14.0 °C 10.8 °C 1033.1 hPa Calm     81 % 0.0 mm 564.0 W/m2 CLR
11:37 14.2 °C 10.6 °C 1033.1 hPa Calm     79 % 0.0 mm 582.0 W/m2 CLR
11:42 14.3 °C 10.5 °C 1033.1 hPa Calm     78 % 0.0 mm 596.0 W/m2 CLR
11:47 14.3 °C 10.1 °C 1033.1 hPa Calm     76 % 0.0 mm 285.0 W/m2 CLR
11:52 14.2 °C 10.1 °C 1033.1 hPa Calm     76 % 0.0 mm 571.0 W/m2 CLR
11:57 14.4 °C 10.3 °C 1033.1 hPa Calm     76 % 0.0 mm 640.0 W/m2 CLR
12:07 14.7 °C 9.9 °C 1033.1 hPa NE 5.6 km/h 5.6 km/h 73 % 0.0 mm 643.0 W/m2 CLR
12:12 14.8 °C 9.6 °C 1032.7 hPa East 6.4 km/h 6.4 km/h 71 % 0.0 mm 638.0 W/m2 CLR
12:17 14.7 °C 9.5 °C 1032.7 hPa Calm     71 % 0.0 mm 230.0 W/m2 CLR
12:22 14.6 °C 9.6 °C 1032.7 hPa SE 5.6 km/h 5.6 km/h 72 % 0.0 mm 288.0 W/m2 CLR
12:27 14.7 °C 10.1 °C 1032.7 hPa Calm     74 % 0.0 mm 330.0 W/m2 CLR
12:32 14.9 °C 10.2 °C 1032.7 hPa Calm     73 % 0.0 mm 343.0 W/m2 CLR
12:37 15.0 °C 9.8 °C 1032.7 hPa Calm     71 % 0.0 mm 341.0 W/m2 CLR
12:42 15.1 °C 9.8 °C 1032.7 hPa Calm     71 % 0.0 mm 322.0 W/m2 CLR
12:47 15.1 °C 9.2 °C 1032.7 hPa SE 8.0 km/h 8.0 km/h 68 % 0.0 mm 283.0 W/m2 CLR
12:52 14.9 °C 8.9 °C 1032.4 hPa East 3.7 km/h   67 % 0.0 mm 251.0 W/m2 CLR
12:57 14.9 °C 9.1 °C 1032.4 hPa Calm     68 % 0.0 mm 255.0 W/m2 CLR
13:02 14.9 °C 9.1 °C 1032.4 hPa Calm     68 % 0.0 mm 276.0 W/m2 CLR
13:07 15.1 °C 9.4 °C 1032.4 hPa Calm     69 % 0.0 mm 299.0 W/m2 CLR
13:12 15.2 °C 8.9 °C 1032.1 hPa Calm     66 % 0.0 mm 244.0 W/m2 CLR
13:17 15.3 °C 8.7 °C 1032.1 hPa SE 5.6 km/h   65 % 0.0 mm 218.0 W/m2 CLR
13:22 15.3 °C 9.0 °C 1032.1 hPa NNE 5.6 km/h 5.6 km/h 66 % 0.0 mm 782.0 W/m2 CLR
13:27 15.7 °C 9.6 °C 1032.1 hPa NE 5.6 km/h   67 % 0.0 mm 798.0 W/m2 CLR
13:32 15.9 °C 10.0 °C 1031.7 hPa NNE 16.7 km/h 16.7 km/h 68 % 0.0 mm 392.0 W/m2 CLR
13:37 15.8 °C 9.4 °C 1031.7 hPa Calm     66 % 0.0 mm 292.0 W/m2 CLR
13:42 15.7 °C 9.8 °C 1031.7 hPa NE 11.3 km/h 11.3 km/h 68 % 0.0 mm 281.0 W/m2 CLR
13:47 15.6 °C 10.2 °C 1031.4 hPa Calm     70 % 0.0 mm 568.0 W/m2 CLR
13:52 15.7 °C 9.8 °C 1031.4 hPa Calm     68 % 0.0 mm 223.0 W/m2 CLR
13:57 15.6 °C 8.8 °C 1031.4 hPa ENE 14.8 km/h 14.8 km/h 64 % 0.0 mm 221.0 W/m2 CLR
14:02 15.4 °C 8.6 °C 1031.4 hPa ESE 11.1 km/h 11.1 km/h 64 % 0.0 mm 269.0 W/m2 CLR
14:07 15.3 °C 8.5 °C 1031.4 hPa East 7.4 km/h 7.4 km/h 64 % 0.0 mm 615.0 W/m2 CLR
14:12 15.4 °C 9.1 °C 1031.0 hPa ENE 8.0 km/h 8.0 km/h 66 % 0.0 mm 297.0 W/m2 CLR
14:17 15.4 °C 8.8 °C 1031.0 hPa ENE 13.0 km/h 13.0 km/h 65 % 0.0 mm 257.0 W/m2 CLR
14:22 15.3 °C 8.5 °C 1031.0 hPa ENE 11.1 km/h 11.1 km/h 64 % 0.0 mm 211.0 W/m2 CLR
14:27 15.2 °C 9.1 °C 1031.0 hPa NE 9.3 km/h 9.3 km/h 67 % 0.0 mm 499.0 W/m2 CLR
14:32 15.4 °C 8.6 °C 1031.0 hPa ENE 11.1 km/h 11.1 km/h 64 % 0.0 mm 466.0 W/m2 CLR
14:37 15.6 °C 8.8 °C 1031.0 hPa NE 11.1 km/h 11.1 km/h 64 % 0.0 mm 657.0 W/m2 CLR
14:42 15.9 °C 8.6 °C 1030.7 hPa ENE 11.3 km/h 11.3 km/h 62 % 0.0 mm 575.0 W/m2 CLR
14:47 15.9 °C 8.4 °C 1030.7 hPa NE 1.9 km/h   61 % 0.0 mm 545.0 W/m2 CLR
14:52 16.0 °C 8.0 °C 1030.4 hPa ESE 16.7 km/h 16.7 km/h 59 % 0.0 mm 497.0 W/m2 CLR
14:57 16.1 °C 8.1 °C 1030.7 hPa NE 7.4 km/h 7.4 km/h 59 % 0.0 mm 336.0 W/m2 CLR
15:02 16.2 °C 8.6 °C 1030.4 hPa East 3.7 km/h 3.7 km/h 61 % 0.0 mm 338.0 W/m2 CLR
15:07 16.1 °C 8.3 °C 1030.4 hPa NE 9.3 km/h 9.3 km/h 60 % 0.0 mm 292.0 W/m2 CLR
15:12 15.9 °C 8.4 °C 1030.4 hPa NE 14.8 km/h 14.8 km/h 61 % 0.0 mm 283.0 W/m2 CLR
15:17 15.7 °C 8.4 °C 1030.4 hPa ENE 5.6 km/h 5.6 km/h 62 % 0.0 mm 294.0 W/m2 CLR
15:22 15.7 °C 8.7 °C 1030.4 hPa NE 6.4 km/h 6.4 km/h 63 % 0.0 mm 380.0 W/m2 CLR
15:28 15.9 °C 8.4 °C 1030.4 hPa NE 8.0 km/h 8.0 km/h 61 % 0.0 mm 357.0 W/m2 CLR
15:33 16.0 °C 8.0 °C 1030.4 hPa ESE 3.7 km/h 3.7 km/h 59 % 0.0 mm 218.0 W/m2 CLR
15:38 16.0 °C 7.7 °C 1030.0 hPa Calm     58 % 0.0 mm 468.0 W/m2 CLR
15:43 16.2 °C 8.2 °C 1030.0 hPa East 7.4 km/h 7.4 km/h 59 % 0.0 mm 483.0 W/m2 CLR
15:48 16.4 °C 7.8 °C 1030.0 hPa Calm     57 % 0.0 mm 427.0 W/m2 CLR
15:53 16.3 °C 8.1 °C 1030.0 hPa East 6.4 km/h 6.4 km/h 58 % 0.0 mm 443.0 W/m2 CLR
15:58 16.3 °C 8.1 °C 1030.0 hPa Calm     58 % 0.0 mm 334.0 W/m2 CLR
16:03 16.3 °C 7.8 °C 1030.0 hPa ESE 5.6 km/h 5.6 km/h 57 % 0.0 mm 311.0 W/m2 CLR
16:08 16.2 °C 7.6 °C 1030.0 hPa East 7.4 km/h 7.4 km/h 57 % 0.0 mm 269.0 W/m2 CLR
16:13 16.1 °C 7.6 °C 1030.0 hPa ENE 7.4 km/h 7.4 km/h 57 % 0.0 mm 313.0 W/m2 CLR
16:18 16.1 °C 7.6 °C 1030.0 hPa Calm     57 % 0.0 mm 290.0 W/m2 CLR
16:23 16.1 °C 7.6 °C 1030.0 hPa East 3.7 km/h   57 % 0.0 mm 209.0 W/m2 CLR
16:28 16.0 °C 6.9 °C 1030.0 hPa Calm     55 % 0.0 mm 171.0 W/m2 CLR
16:33 15.9 °C 7.4 °C 1030.0 hPa East 3.7 km/h 3.7 km/h 57 % 0.0 mm 149.0 W/m2 CLR
16:38 15.9 °C 7.4 °C 1029.7 hPa ESE 7.4 km/h 7.4 km/h 57 % 0.0 mm 153.0 W/m2 CLR
16:48 15.7 °C 7.7 °C 1029.7 hPa ENE 7.4 km/h 7.4 km/h 59 % 0.0 mm 130.0 W/m2 CLR
16:53 15.6 °C 7.9 °C 1029.7 hPa ENE 13.0 km/h 13.0 km/h 60 % 0.0 mm 121.0 W/m2 CLR
16:58 15.5 °C 8.0 °C 1029.7 hPa East 7.4 km/h 7.4 km/h 61 % 0.0 mm 128.0 W/m2 CLR
17:03 15.3 °C 7.8 °C 1029.7 hPa East 7.4 km/h 7.4 km/h 61 % 0.0 mm 125.0 W/m2 CLR
17:08 15.3 °C 8.1 °C 1030.0 hPa ENE 4.8 km/h 4.8 km/h 62 % 0.0 mm 118.0 W/m2 CLR
17:13 15.3 °C 8.1 °C 1029.7 hPa East 7.4 km/h 7.4 km/h 62 % 0.0 mm 111.0 W/m2 CLR
17:18 15.2 °C 7.7 °C 1029.7 hPa Calm     61 % 0.0 mm 104.0 W/m2 CLR
17:23 15.1 °C 8.1 °C 1029.7 hPa East 1.9 km/h 1.9 km/h 63 % 0.0 mm 98.0 W/m2 CLR
17:28 15.1 °C 8.1 °C 1030.0 hPa ENE 7.4 km/h 7.4 km/h 63 % 0.0 mm 93.0 W/m2 CLR
17:33 15.0 °C 8.2 °C 1030.0 hPa ESE 8.0 km/h 8.0 km/h 64 % 0.0 mm 91.0 W/m2 CLR
17:38 14.9 °C 8.1 °C 1030.0 hPa East 3.7 km/h 3.7 km/h 64 % 0.0 mm 84.0 W/m2 CLR
17:43 14.8 °C 8.5 °C 1030.0 hPa ESE 7.4 km/h 7.4 km/h 66 % 0.0 mm 72.0 W/m2 FEW
17:48 14.7 °C 8.6 °C 1030.0 hPa Calm     67 % 0.0 mm 62.0 W/m2 SCT
17:53 14.6 °C 8.7 °C 1030.0 hPa East 7.4 km/h 7.4 km/h 68 % 0.0 mm 54.0 W/m2 SCT
17:58 14.4 °C 8.8 °C 1030.0 hPa Calm     69 % 0.0 mm 46.0 W/m2 SCT
18:03 14.3 °C 8.9 °C 1030.0 hPa ESE 5.6 km/h 5.6 km/h 70 % 0.0 mm 39.0 W/m2 BKN
18:08 14.2 °C 9.1 °C 1030.0 hPa ESE 1.9 km/h   71 % 0.0 mm 32.0 W/m2 BKN
18:13 14.1 °C 9.1 °C 1030.0 hPa Calm     72 % 0.0 mm 21.0 W/m2 BKN
18:18 13.9 °C 9.2 °C 1030.0 hPa Calm     73 % 0.0 mm 14.0 W/m2 BKN
18:33 13.6 °C 9.1 °C 1030.4 hPa Calm     74 % 0.0 mm 0.0 W/m2 OVC
18:38 13.5 °C 9.2 °C 1030.4 hPa Calm     75 % 0.0 mm 0.0 W/m2 OVC
18:43 13.3 °C 9.0 °C 1030.4 hPa Calm     75 % 0.0 mm 0.0 W/m2 OVC
18:48 13.3 °C 9.1 °C 1030.4 hPa Calm     76 % 0.0 mm 0.0 W/m2 CLR
18:53 13.2 °C 9.0 °C 1030.4 hPa Calm     76 % 0.0 mm 0.0 W/m2 CLR
18:58 13.0 °C 9.1 °C 1030.4 hPa Calm     77 % 0.0 mm 0.0 W/m2 CLR
19:03 12.9 °C 8.9 °C 1030.4 hPa Calm     77 % 0.0 mm 0.0 W/m2 CLR
19:08 12.8 °C 9.1 °C 1030.7 hPa Calm     78 % 0.0 mm 0.0 W/m2 CLR
19:13 12.7 °C 8.9 °C 1030.7 hPa Calm     78 % 0.0 mm 0.0 W/m2 CLR
19:18 12.6 °C 9.0 °C 1030.7 hPa Calm     79 % 0.0 mm 0.0 W/m2 CLR
19:23 12.4 °C 8.8 °C 1030.7 hPa Calm     79 % 0.0 mm 0.0 W/m2 CLR
19:28 12.2 °C 8.9 °C 1030.7 hPa Calm     80 % 0.0 mm 0.0 W/m2 CLR
19:33 12.1 °C 8.9 °C 1030.7 hPa Calm     81 % 0.0 mm 0.0 W/m2 CLR
19:38 11.9 °C 8.8 °C 1030.7 hPa Calm     81 % 0.0 mm 0.0 W/m2 CLR
19:43 11.7 °C 8.6 °C 1031.0 hPa Calm     81 % 0.0 mm 0.0 W/m2 CLR
19:48 11.6 °C 8.6 °C 1031.0 hPa Calm     82 % 0.0 mm 0.0 W/m2 CLR
19:53 11.3 °C 8.3 °C 1031.0 hPa Calm     82 % 0.0 mm 0.0 W/m2 CLR
19:58 11.1 °C 8.4 °C 1031.0 hPa Calm     84 % 0.0 mm 0.0 W/m2 CLR
20:03 10.8 °C 8.2 °C 1031.0 hPa Calm     84 % 0.0 mm 0.0 W/m2 CLR
20:08 10.7 °C 8.2 °C 1031.0 hPa Calm     85 % 0.0 mm 0.0 W/m2 CLR
20:13 10.6 °C 8.1 °C 1031.0 hPa Calm     85 % 0.0 mm 0.0 W/m2 CLR
20:18 10.4 °C 8.2 °C 1031.0 hPa Calm     86 % 0.0 mm 0.0 W/m2 CLR
20:23 10.3 °C 8.1 °C 1031.4 hPa Calm     86 % 0.0 mm 0.0 W/m2 CLR
20:28 10.1 °C 7.9 °C 1031.4 hPa Calm     86 % 0.0 mm 0.0 W/m2 CLR
20:33 10.0 °C 7.9 °C 1031.4 hPa Calm     87 % 0.0 mm 0.0 W/m2 CLR
20:38 9.9 °C 7.8 °C 1031.4 hPa Calm     87 % 0.0 mm 0.0 W/m2 CLR
20:43 9.8 °C 7.8 °C 1031.4 hPa Calm     87 % 0.0 mm 0.0 W/m2 CLR
20:48 9.7 °C 7.7 °C 1031.4 hPa Calm     87 % 0.0 mm 0.0 W/m2 CLR
20:53 9.6 °C 7.6 °C 1031.4 hPa Calm     87 % 0.0 mm 0.0 W/m2 CLR
20:58 9.4 °C 7.6 °C 1031.4 hPa Calm     88 % 0.0 mm 0.0 W/m2 CLR
21:03 9.3 °C 7.4 °C 1031.4 hPa Calm     88 % 0.0 mm 0.0 W/m2 CLR
21:09 9.2 °C 7.3 °C 1031.4 hPa Calm     88 % 0.0 mm 0.0 W/m2 CLR
21:13 9.1 °C 7.4 °C 1031.4 hPa Calm     89 % 0.0 mm 0.0 W/m2 CLR
21:19 9.1 °C 7.2 °C 1031.7 hPa Calm     88 % 0.0 mm 0.0 W/m2 CLR
21:24 8.9 °C 7.0 °C 1031.7 hPa Calm     88 % 0.0 mm 0.0 W/m2 CLR
21:29 8.8 °C 7.1 °C 1031.7 hPa Calm     89 % 0.0 mm 0.0 W/m2 CLR
21:34 8.6 °C 6.9 °C 1031.7 hPa Calm     89 % 0.0 mm 0.0 W/m2 CLR
21:39 8.5 °C 6.8 °C 1031.7 hPa Calm     89 % 0.0 mm 0.0 W/m2 CLR
21:44 8.3 °C 6.6 °C 1031.7 hPa Calm     89 % 0.0 mm 0.0 W/m2 CLR
21:49 8.1 °C 6.4 °C 1031.7 hPa Calm     89 % 0.0 mm 0.0 W/m2 CLR
21:54 8.0 °C 6.4 °C 1032.1 hPa Calm     90 % 0.0 mm 0.0 W/m2 CLR
21:59 7.9 °C 6.4 °C 1032.1 hPa Calm     90 % 0.0 mm 0.0 W/m2 CLR
22:04 7.9 °C 6.4 °C 1032.1 hPa Calm     90 % 0.0 mm 0.0 W/m2 CLR
22:09 7.8 °C 6.3 °C 1032.1 hPa Calm     90 % 0.0 mm 0.0 W/m2 CLR
22:14 7.7 °C 6.2 °C 1032.1 hPa Calm     90 % 0.0 mm 0.0 W/m2 CLR
22:19 7.6 °C 6.0 °C 1032.1 hPa Calm     90 % 0.0 mm 0.0 W/m2 CLR
22:24 7.4 °C 5.8 °C 1032.1 hPa Calm     90 % 0.0 mm 0.0 W/m2 CLR
22:29 7.3 °C 5.7 °C 1032.1 hPa Calm     90 % 0.0 mm 0.0 W/m2 CLR
22:34 7.2 °C 5.6 °C 1032.1 hPa Calm     90 % 0.0 mm 0.0 W/m2 CLR
22:39 7.1 °C 5.7 °C 1032.1 hPa Calm     91 % 0.0 mm 0.0 W/m2 CLR
22:44 6.9 °C 5.6 °C 1032.1 hPa Calm     91 % 0.0 mm 0.0 W/m2 CLR
22:49 6.8 °C 5.4 °C 1032.1 hPa Calm     91 % 0.0 mm 0.0 W/m2 CLR
22:54 6.7 °C 5.3 °C 1032.1 hPa Calm     91 % 0.0 mm 0.0 W/m2 CLR
22:59 6.6 °C 5.2 °C 1032.1 hPa Calm     91 % 0.0 mm 0.0 W/m2 CLR
23:04 6.6 °C 5.2 °C 1032.1 hPa Calm     91 % 0.0 mm 0.0 W/m2 CLR
23:09 6.6 °C 5.4 °C 1032.1 hPa Calm     92 % 0.0 mm 0.0 W/m2 CLR
23:14 6.6 °C 5.3 °C 1032.1 hPa Calm     92 % 0.0 mm 0.0 W/m2 CLR
23:19 6.4 °C 5.1 °C 1032.1 hPa Calm     91 % 0.0 mm 0.0 W/m2 CLR
23:24 6.4 °C 5.2 °C 1032.1 hPa Calm     92 % 0.0 mm 0.0 W/m2 CLR
23:29 6.3 °C 5.1 °C 1032.1 hPa Calm     92 % 0.0 mm 0.0 W/m2 CLR
23:34 6.2 °C 4.9 °C 1032.1 hPa Calm     92 % 0.0 mm 0.0 W/m2 CLR
23:39 6.1 °C 4.9 °C 1032.1 hPa Calm     92 % 0.0 mm 0.0 W/m2 CLR
23:44 6.0 °C 4.8 °C 1032.1 hPa Calm     92 % 0.0 mm 0.0 W/m2 CLR
23:49 5.9 °C 4.7 °C 1032.1 hPa Calm     92 % 0.0 mm 0.0 W/m2 CLR
23:54 5.9 °C 4.7 °C 1032.1 hPa Calm     92 % 0.0 mm 0.0 W/m2 CLR
23:59 5.8 °C 4.6 °C 1031.7 hPa Calm     92 % 0.0 mm 0.0 W/m2 CLR
Lo Temps de Massalio
Compliments of Weather Underground - 1.25 mb